Time;durP1;ratioP1;P1;durP2;ratioP2;P2;SDS_P1;SDS_P2;PMS_P1;PMS_P2;Temp;Humidity;BMP_temperature;BMP_pressure;BME280_temperature;BME280_humidity;BME280_pressure;Samples;Min_cycle;Max_cycle;Signal;HPM_P1;HPM_P2
2021/01/24 00:01:10;;;;;;;;;;;4.00;99.90;;;;;;5053750;28;19932;-64
2021/01/24 00:03:37;;;;;;;;;;;4.00;99.90;;;;;;5053319;28;19925;-64
2021/01/24 00:06:03;;;;;;;;;;;4.00;99.90;;;;;;5054009;28;19932;-63
2021/01/24 00:08:29;;;;;;;;;;;4.00;99.90;;;;;;5054836;28;19932;-62
2021/01/24 00:10:55;;;;;;;;;;;3.90;99.90;;;;;;5054031;28;19929;-63
2021/01/24 00:13:21;;;;;;;;;;;3.90;99.90;;;;;;5054227;28;19925;-63
2021/01/24 00:15:47;;;;;;;;;;;3.80;99.90;;;;;;5056565;28;19974;-63
2021/01/24 00:18:13;;;;;;;;;;;3.80;99.90;;;;;;5059154;28;19925;-63
2021/01/24 00:20:40;;;;;;;;;;;3.90;99.90;;;;;;5057965;28;19948;-64
2021/01/24 00:23:06;;;;;;;;;;;3.80;99.90;;;;;;5057761;28;19928;-64
2021/01/24 00:25:32;;;;;;;;;;;3.90;99.90;;;;;;5057476;28;19932;-63
2021/01/24 00:27:58;;;;;;;;;;;3.90;99.90;;;;;;5057274;28;19932;-62
2021/01/24 00:30:24;;;;;;;;;;;3.80;99.90;;;;;;5058160;28;20407;-64
2021/01/24 00:32:50;;;;;;;;;;;3.70;99.90;;;;;;5057413;28;19926;-63
2021/01/24 00:35:17;;;;;;;;;;;3.80;99.90;;;;;;5057546;28;20111;-62
2021/01/24 00:37:44;;;;;;;;;;;3.80;99.90;;;;;;5057372;28;19932;-62
2021/01/24 00:40:10;;;;;;;;;;;3.70;99.90;;;;;;5057504;28;19924;-63
2021/01/24 00:42:36;;;;;;;;;;;3.70;99.90;;;;;;5057002;28;19925;-64
2021/01/24 00:45:03;;;;;;;;;;;3.70;99.90;;;;;;5057034;28;19933;-62
2021/01/24 00:47:29;;;;;;;;;;;3.80;99.90;;;;;;5056914;28;19929;-63
2021/01/24 00:49:55;;;;;;;;;;;3.70;99.90;;;;;;5057416;28;19932;-62
2021/01/24 00:52:21;;;;;;;;;;;3.70;99.90;;;;;;5057947;28;20280;-62
2021/01/24 00:54:48;;;;;;;;;;;3.60;99.90;;;;;;5057169;28;19925;-63
2021/01/24 00:57:14;;;;;;;;;;;3.60;99.90;;;;;;5056652;28;19931;-63
2021/01/24 00:59:40;;;;;;;;;;;3.60;99.90;;;;;;5056666;28;19925;-63
2021/01/24 01:02:06;;;;;;;;;;;3.50;99.90;;;;;;5060540;28;19935;-62
2021/01/24 01:04:32;;;;;;;;;;;3.50;99.90;;;;;;5064452;28;19950;-62
2021/01/24 01:06:59;;;;;;;;;;;3.50;99.90;;;;;;5064162;28;19925;-62
2021/01/24 01:09:25;;;;;;;;;;;3.50;99.90;;;;;;5064616;28;19929;-63
2021/01/24 01:11:52;;;;;;;;;;;3.40;99.90;;;;;;5059893;28;19925;-63
2021/01/24 01:14:18;;;;;;;;;;;3.40;99.90;;;;;;5056381;28;19954;-62
2021/01/24 01:16:44;;;;;;;;;;;3.40;99.90;;;;;;5056343;28;19925;-63
2021/01/24 01:19:10;;;;;;;;;;;3.40;99.90;;;;;;5056276;28;20329;-64
2021/01/24 01:21:36;;;;;;;;;;;3.30;99.90;;;;;;5055928;28;19931;-62
2021/01/24 01:24:02;;;;;;;;;;;3.40;99.90;;;;;;5063187;28;19925;-63
2021/01/24 01:26:28;;;;;;;;;;;3.40;99.90;;;;;;5060233;28;20363;-63
2021/01/24 01:28:55;;;;;;;;;;;3.40;99.90;;;;;;5056606;28;20015;-64
2021/01/24 01:31:21;;;;;;;;;;;3.40;99.90;;;;;;5056956;28;19925;-63
2021/01/24 01:33:47;;;;;;;;;;;3.40;99.90;;;;;;5056508;28;19931;-64
2021/01/24 01:36:13;;;;;;;;;;;3.40;99.90;;;;;;5056148;28;19931;-62
2021/01/24 01:38:39;;;;;;;;;;;3.40;99.90;;;;;;5056527;28;19932;-63
2021/01/24 01:41:05;;;;;;;;;;;3.40;99.90;;;;;;5056134;28;19929;-63
2021/01/24 01:43:31;;;;;;;;;;;3.40;99.90;;;;;;5055760;28;19948;-63
2021/01/24 01:45:58;;;;;;;;;;;3.40;99.90;;;;;;5056201;28;19924;-63
2021/01/24 01:48:24;;;;;;;;;;;3.30;99.90;;;;;;5056230;28;19928;-63
2021/01/24 01:50:50;;;;;;;;;;;3.20;99.90;;;;;;5055682;28;19932;-64
2021/01/24 01:53:16;;;;;;;;;;;3.30;99.90;;;;;;5055588;28;19925;-63
2021/01/24 01:55:42;;;;;;;;;;;3.30;99.90;;;;;;5055553;28;19932;-63
2021/01/24 01:58:08;;;;;;;;;;;3.40;99.90;;;;;;5055589;28;19925;-61
2021/01/24 02:00:34;;;;;;;;;;;3.30;99.90;;;;;;5055536;28;19931;-61
2021/01/24 02:03:11;;;;;;;;;;;3.30;99.90;;;;;;5055165;28;20039;-62
2021/01/24 02:05:41;;;;;;;;;;;3.40;99.90;;;;;;5055260;28;19933;-63
2021/01/24 02:08:10;;;;;;;;;;;3.30;99.90;;;;;;5055053;28;19932;-62
2021/01/24 02:10:37;;;;;;;;;;;3.40;99.90;;;;;;5054901;28;20410;-63
2021/01/24 02:13:06;;;;;;;;;;;3.40;99.90;;;;;;5054882;28;20437;-62
2021/01/24 02:15:33;;;;;;;;;;;3.40;99.90;;;;;;5054829;28;19975;-63
2021/01/24 02:18:00;;;;;;;;;;;3.40;99.90;;;;;;5055081;28;19924;-62
2021/01/24 02:20:34;;;;;;;;;;;3.40;99.90;;;;;;5055115;28;19925;-63
2021/01/24 02:23:01;;;;;;;;;;;3.50;99.90;;;;;;5054807;28;20295;-62
2021/01/24 02:25:33;;;;;;;;;;;3.50;99.90;;;;;;5054605;28;20240;-62
2021/01/24 02:28:02;;;;;;;;;;;3.40;99.90;;;;;;5054965;28;20295;-62
2021/01/24 02:30:31;;;;;;;;;;;3.40;99.90;;;;;;5054595;28;19964;-62
2021/01/24 02:33:01;;;;;;;;;;;3.20;99.90;;;;;;5054709;28;19971;-63
2021/01/24 02:35:28;;;;;;;;;;;3.20;99.90;;;;;;5054748;28;19925;-62
2021/01/24 02:37:55;;;;;;;;;;;3.10;99.90;;;;;;5054495;28;19924;-62
2021/01/24 02:40:22;;;;;;;;;;;3.10;99.90;;;;;;5053792;28;19948;-61
2021/01/24 02:42:49;;;;;;;;;;;3.00;99.90;;;;;;5054592;28;19928;-64
2021/01/24 02:45:16;;;;;;;;;;;2.90;99.90;;;;;;5054141;28;19936;-62
2021/01/24 02:47:43;;;;;;;;;;;2.80;99.90;;;;;;5054583;28;20314;-62
2021/01/24 02:50:09;;;;;;;;;;;2.80;99.90;;;;;;5054143;28;20386;-62
2021/01/24 02:52:36;;;;;;;;;;;2.80;99.90;;;;;;5054368;28;19941;-61
2021/01/24 02:55:03;;;;;;;;;;;2.80;99.90;;;;;;5054409;28;19971;-62
2021/01/24 02:57:30;;;;;;;;;;;2.70;99.90;;;;;;5054279;28;19925;-63
2021/01/24 02:59:56;;;;;;;;;;;2.70;99.90;;;;;;5055105;28;20287;-63
2021/01/24 03:02:22;;;;;;;;;;;2.60;99.90;;;;;;5054419;28;19925;-63
2021/01/24 03:04:49;;;;;;;;;;;2.60;99.90;;;;;;5054006;28;19928;-62
2021/01/24 03:07:15;;;;;;;;;;;2.60;99.90;;;;;;5054155;28;19928;-63
2021/01/24 03:09:41;;;;;;;;;;;2.60;99.90;;;;;;5053864;28;20001;-62
2021/01/24 03:12:08;;;;;;;;;;;2.50;99.90;;;;;;5054057;28;19925;-61
2021/01/24 03:14:34;;;;;;;;;;;2.50;99.90;;;;;;5054000;28;19925;-62
2021/01/24 03:17:02;;;;;;;;;;;2.50;99.90;;;;;;5054029;28;20008;-63
2021/01/24 03:19:29;;;;;;;;;;;2.50;99.90;;;;;;5054273;28;20380;-61
2021/01/24 03:21:56;;;;;;;;;;;2.50;99.90;;;;;;5054965;28;19928;-63
2021/01/24 03:24:22;;;;;;;;;;;2.40;99.90;;;;;;5053847;28;19929;-64
2021/01/24 03:26:49;;;;;;;;;;;2.40;99.90;;;;;;5053707;28;19924;-63
2021/01/24 03:29:15;;;;;;;;;;;2.30;99.90;;;;;;5053780;28;19928;-64
2021/01/24 03:31:41;;;;;;;;;;;2.30;99.90;;;;;;5053510;28;19932;-63
2021/01/24 03:34:09;;;;;;;;;;;2.30;99.90;;;;;;5053861;28;19925;-62
2021/01/24 03:36:35;;;;;;;;;;;2.20;99.90;;;;;;5053809;28;19929;-64
2021/01/24 03:39:02;;;;;;;;;;;2.20;99.90;;;;;;5053671;28;19932;-62
2021/01/24 03:41:28;;;;;;;;;;;2.20;99.90;;;;;;5053731;28;20292;-63
2021/01/24 03:43:54;;;;;;;;;;;2.10;99.90;;;;;;5053385;28;19925;-62
2021/01/24 03:46:20;;;;;;;;;;;2.10;99.90;;;;;;5053553;28;19925;-61
2021/01/24 03:48:46;;;;;;;;;;;2.10;99.90;;;;;;5053313;28;20372;-62
2021/01/24 03:51:12;;;;;;;;;;;2.10;99.90;;;;;;5053135;28;19932;-62
2021/01/24 03:53:38;;;;;;;;;;;2.10;99.90;;;;;;5053459;28;19932;-62
2021/01/24 03:56:05;;;;;;;;;;;2.10;99.90;;;;;;5053531;28;19924;-62
2021/01/24 03:58:31;;;;;;;;;;;2.10;99.90;;;;;;5053654;28;19925;-63
2021/01/24 04:00:57;;;;;;;;;;;2.10;99.90;;;;;;5053511;28;19925;-63
2021/01/24 04:03:23;;;;;;;;;;;2.20;99.90;;;;;;5053215;28;20323;-61
2021/01/24 04:05:49;;;;;;;;;;;2.20;99.90;;;;;;5054300;28;19928;-61
2021/01/24 04:08:15;;;;;;;;;;;2.20;99.90;;;;;;5053512;28;19963;-62
2021/01/24 04:10:41;;;;;;;;;;;2.20;99.90;;;;;;5053515;28;19995;-63
2021/01/24 04:13:08;;;;;;;;;;;2.20;99.90;;;;;;5053330;28;19963;-62
2021/01/24 04:15:34;;;;;;;;;;;2.30;99.90;;;;;;5054111;28;19925;-61
2021/01/24 04:18:00;;;;;;;;;;;2.30;99.90;;;;;;5059415;28;19925;-63
2021/01/24 04:20:26;;;;;;;;;;;2.30;99.90;;;;;;5058074;28;20291;-62
2021/01/24 04:22:52;;;;;;;;;;;2.30;99.90;;;;;;5055483;28;20363;-63
2021/01/24 04:25:18;;;;;;;;;;;2.20;99.90;;;;;;5052939;28;19924;-63
2021/01/24 04:27:45;;;;;;;;;;;2.10;99.90;;;;;;5053290;28;20046;-63
2021/01/24 04:30:12;;;;;;;;;;;2.00;99.90;;;;;;5053327;28;20363;-63
2021/01/24 04:32:38;;;;;;;;;;;2.00;99.90;;;;;;5053452;28;19971;-63
2021/01/24 04:35:05;;;;;;;;;;;1.80;99.90;;;;;;5053530;28;19924;-62
2021/01/24 04:37:31;;;;;;;;;;;1.80;99.90;;;;;;5053176;28;19925;-64
2021/01/24 04:39:57;;;;;;;;;;;1.80;99.90;;;;;;5053207;28;19952;-63
2021/01/24 04:42:23;;;;;;;;;;;1.70;99.90;;;;;;5053104;28;20299;-64
2021/01/24 04:44:49;;;;;;;;;;;1.70;99.90;;;;;;5052877;28;20444;-64
2021/01/24 04:47:18;;;;;;;;;;;1.70;99.90;;;;;;5053135;28;19929;-63
2021/01/24 04:49:44;;;;;;;;;;;1.70;99.90;;;;;;5052984;28;19970;-63
2021/01/24 04:52:10;;;;;;;;;;;1.70;99.90;;;;;;5052779;28;19925;-64
2021/01/24 04:54:37;;;;;;;;;;;1.70;99.90;;;;;;5052722;28;19925;-63
2021/01/24 04:57:03;;;;;;;;;;;1.80;99.90;;;;;;5053065;28;19925;-63
2021/01/24 04:59:29;;;;;;;;;;;1.80;99.90;;;;;;5053032;28;19931;-62
2021/01/24 05:01:56;;;;;;;;;;;1.80;99.90;;;;;;5053230;28;20284;-63
2021/01/24 05:04:23;;;;;;;;;;;1.80;99.90;;;;;;5056340;28;19947;-61
2021/01/24 05:06:49;;;;;;;;;;;1.80;99.90;;;;;;5056643;28;19925;-63
2021/01/24 05:09:17;;;;;;;;;;;1.80;99.90;;;;;;5057456;28;19975;-63
2021/01/24 05:11:48;;;;;;;;;;;1.90;99.90;;;;;;5056568;28;19976;-63
2021/01/24 05:14:15;;;;;;;;;;;1.90;99.90;;;;;;5056504;28;19924;-62
2021/01/24 05:16:41;;;;;;;;;;;2.00;99.90;;;;;;5057002;28;19925;-62
2021/01/24 05:19:08;;;;;;;;;;;2.00;99.90;;;;;;5056362;28;20015;-63
2021/01/24 05:21:35;;;;;;;;;;;2.00;99.90;;;;;;5056604;28;19924;-62
2021/01/24 05:24:02;;;;;;;;;;;2.00;99.90;;;;;;5056306;28;20288;-62
2021/01/24 05:26:28;;;;;;;;;;;2.00;99.90;;;;;;5055970;28;20430;-62
2021/01/24 05:28:54;;;;;;;;;;;1.90;99.90;;;;;;5056465;28;19932;-63
2021/01/24 05:31:21;;;;;;;;;;;1.90;99.90;;;;;;5056204;28;19925;-62
2021/01/24 05:33:48;;;;;;;;;;;1.80;99.90;;;;;;5056120;28;19929;-64
2021/01/24 05:36:14;;;;;;;;;;;1.70;99.90;;;;;;5056078;28;19924;-62
2021/01/24 05:38:41;;;;;;;;;;;1.80;99.90;;;;;;5056045;28;19928;-62
2021/01/24 05:41:08;;;;;;;;;;;1.70;99.90;;;;;;5056238;28;19971;-62
2021/01/24 05:43:34;;;;;;;;;;;1.70;99.90;;;;;;5056465;28;19924;-64
2021/01/24 05:46:00;;;;;;;;;;;1.70;99.90;;;;;;5055964;28;20020;-64
2021/01/24 05:48:27;;;;;;;;;;;1.70;99.90;;;;;;5055859;28;19925;-63
2021/01/24 05:50:53;;;;;;;;;;;1.70;99.90;;;;;;5056343;28;19925;-63
2021/01/24 05:53:19;;;;;;;;;;;1.70;99.90;;;;;;5055783;28;19925;-64
2021/01/24 05:55:46;;;;;;;;;;;1.70;99.90;;;;;;5055844;28;19929;-64
2021/01/24 05:58:16;;;;;;;;;;;1.70;99.90;;;;;;5055755;28;19925;-64
2021/01/24 06:00:42;;;;;;;;;;;1.60;99.90;;;;;;5055736;28;19925;-63
2021/01/24 06:03:09;;;;;;;;;;;1.60;99.90;;;;;;5055434;28;19924;-64
2021/01/24 06:05:36;;;;;;;;;;;1.50;99.90;;;;;;5055721;28;19929;-64
2021/01/24 06:08:02;;;;;;;;;;;1.50;99.90;;;;;;5055462;28;19929;-63
2021/01/24 06:10:28;;;;;;;;;;;1.50;99.90;;;;;;5055466;28;19925;-64
2021/01/24 06:12:58;;;;;;;;;;;1.50;99.90;;;;;;5055302;28;20288;-63
2021/01/24 06:15:24;;;;;;;;;;;1.50;99.90;;;;;;5055839;28;19947;-64
2021/01/24 06:17:55;;;;;;;;;;;1.50;99.90;;;;;;5055836;28;20326;-63
2021/01/24 06:20:22;;;;;;;;;;;1.50;99.90;;;;;;5055774;28;19925;-65
2021/01/24 06:22:49;;;;;;;;;;;1.50;99.90;;;;;;5056076;28;19925;-64
2021/01/24 06:25:18;;;;;;;;;;;1.50;99.90;;;;;;5055348;28;20379;-64
2021/01/24 06:27:47;;;;;;;;;;;1.50;99.90;;;;;;5055331;28;20388;-64
2021/01/24 06:30:15;;;;;;;;;;;1.50;99.90;;;;;;5055415;28;20371;-64
2021/01/24 06:32:41;;;;;;;;;;;1.50;99.90;;;;;;5055440;28;20383;-64
2021/01/24 06:35:15;;;;;;;;;;;1.60;99.90;;;;;;5055564;28;19929;-65
2021/01/24 06:37:46;;;;;;;;;;;1.50;99.90;;;;;;5055302;28;19924;-63
2021/01/24 06:40:19;;;;;;;;;;;1.40;99.90;;;;;;5055333;28;19925;-64
2021/01/24 06:42:49;;;;;;;;;;;1.30;99.90;;;;;;5055347;28;20314;-65
2021/01/24 06:45:33;;;;;;;;;;;1.10;99.90;;;;;;5055963;28;19925;-64
2021/01/24 06:48:01;;;;;;;;;;;1.20;99.90;;;;;;5056953;28;19932;-63
2021/01/24 06:50:48;;;;;;;;;;;1.20;99.90;;;;;;5055898;28;19931;-65
2021/01/24 06:53:20;;;;;;;;;;;1.10;99.90;;;;;;5049888;28;19925;-64
2021/01/24 06:55:54;;;;;;;;;;;1.10;99.90;;;;;;5054925;28;20019;-64
2021/01/24 06:58:24;;;;;;;;;;;1.10;99.90;;;;;;5054561;28;19925;-63
2021/01/24 07:00:50;;;;;;;;;;;1.20;99.90;;;;;;5054678;28;19925;-63
2021/01/24 07:03:18;;;;;;;;;;;1.10;99.90;;;;;;5054354;28;19925;-65
2021/01/24 07:05:44;;;;;;;;;;;1.10;99.90;;;;;;5054369;28;20007;-64
2021/01/24 07:08:25;;;;;;;;;;;1.10;99.90;;;;;;5054717;28;19924;-64
2021/01/24 07:10:51;;;;;;;;;;;1.10;99.90;;;;;;5053720;28;19932;-64
2021/01/24 07:13:35;;;;;;;;;;;1.20;99.90;;;;;;5054291;28;19932;-63
2021/01/24 07:16:02;;;;;;;;;;;1.20;99.90;;;;;;5054300;28;19924;-62
2021/01/24 07:18:39;;;;;;;;;;;1.20;99.90;;;;;;5054890;28;19925;-64
2021/01/24 07:21:05;;;;;;;;;;;1.20;99.90;;;;;;5054161;28;19925;-63
2021/01/24 07:23:31;;;;;;;;;;;1.20;99.90;;;;;;5055567;28;19932;-62
2021/01/24 07:25:58;;;;;;;;;;;1.30;99.90;;;;;;5055493;28;20343;-64
2021/01/24 07:28:25;;;;;;;;;;;1.40;99.90;;;;;;5054329;28;19925;-64
2021/01/24 07:30:57;;;;;;;;;;;1.40;99.90;;;;;;5056754;28;19925;-64
2021/01/24 07:33:23;;;;;;;;;;;1.50;99.90;;;;;;5056791;28;19924;-64
2021/01/24 07:35:50;;;;;;;;;;;1.50;99.90;;;;;;5055217;28;19925;-65
2021/01/24 07:38:16;;;;;;;;;;;1.50;99.90;;;;;;5054123;28;19975;-65
2021/01/24 07:40:42;;;;;;;;;;;1.50;99.90;;;;;;5054163;28;19932;-64
2021/01/24 07:43:08;;;;;;;;;;;1.70;99.90;;;;;;5053768;28;20339;-63
2021/01/24 07:45:34;;;;;;;;;;;1.70;99.90;;;;;;5053956;28;19932;-63
2021/01/24 07:48:01;;;;;;;;;;;1.80;99.90;;;;;;5054807;28;19928;-64
2021/01/24 07:50:27;;;;;;;;;;;1.90;99.90;;;;;;5053705;28;20346;-64
2021/01/24 07:52:54;;;;;;;;;;;1.90;99.90;;;;;;5053458;28;20398;-64
2021/01/24 07:55:20;;;;;;;;;;;2.00;99.90;;;;;;5053750;28;19925;-63
2021/01/24 07:57:46;;;;;;;;;;;2.60;99.90;;;;;;5053771;28;20311;-63
2021/01/24 08:00:13;;;;;;;;;;;2.80;99.90;;;;;;5053766;28;19925;-63
2021/01/24 08:02:39;;;;;;;;;;;2.70;99.90;;;;;;5053518;28;19990;-63
2021/01/24 08:05:06;;;;;;;;;;;3.00;99.90;;;;;;5053758;28;20291;-63
2021/01/24 08:07:32;;;;;;;;;;;3.00;99.90;;;;;;5053674;28;19925;-63
2021/01/24 08:09:58;;;;;;;;;;;2.80;99.90;;;;;;5053737;28;19924;-63
2021/01/24 08:12:25;;;;;;;;;;;2.70;99.90;;;;;;5053758;28;19925;-63
2021/01/24 08:14:52;;;;;;;;;;;2.50;99.90;;;;;;5053638;28;19940;-64
2021/01/24 08:17:19;;;;;;;;;;;2.50;99.90;;;;;;5055544;28;19975;-63
2021/01/24 08:19:46;;;;;;;;;;;2.40;99.90;;;;;;5059453;28;20331;-62
2021/01/24 08:22:12;;;;;;;;;;;2.40;99.90;;;;;;5057184;28;19925;-62
2021/01/24 08:24:39;;;;;;;;;;;2.40;99.90;;;;;;5056041;28;19925;-62
2021/01/24 08:27:06;;;;;;;;;;;2.50;99.90;;;;;;5053556;28;19934;-65
2021/01/24 08:29:35;;;;;;;;;;;2.60;99.90;;;;;;5053399;28;19925;-64
2021/01/24 08:32:01;;;;;;;;;;;2.60;99.90;;;;;;5053109;28;20379;-62
2021/01/24 08:34:28;;;;;;;;;;;2.70;99.90;;;;;;5053421;28;19932;-64
2021/01/24 08:36:55;;;;;;;;;;;3.40;99.90;;;;;;5055398;28;20291;-63
2021/01/24 08:39:22;;;;;;;;;;;4.90;99.90;;;;;;5057110;28;20379;-62
2021/01/24 08:41:49;;;;;;;;;;;6.10;99.90;;;;;;5057279;28;19924;-62
2021/01/24 08:44:16;;;;;;;;;;;6.50;99.90;;;;;;5057150;28;19928;-62
2021/01/24 08:46:42;;;;;;;;;;;6.40;99.90;;;;;;5056979;28;19928;-64
2021/01/24 08:49:10;;;;;;;;;;;6.10;99.90;;;;;;5057233;28;19943;-62
2021/01/24 08:51:39;;;;;;;;;;;5.50;99.90;;;;;;5057005;28;20395;-64
2021/01/24 08:54:12;;;;;;;;;;;4.90;99.90;;;;;;5056935;28;20062;-62
2021/01/24 08:56:38;;;;;;;;;;;4.70;99.90;;;;;;5056974;28;19975;-63
2021/01/24 08:59:16;;;;;;;;;;;4.20;99.90;;;;;;5056870;28;19971;-62
2021/01/24 09:01:45;;;;;;;;;;;4.00;99.90;;;;;;5056750;28;19979;-61
2021/01/24 09:04:18;;;;;;;;;;;3.80;99.90;;;;;;5056401;28;20375;-62
2021/01/24 09:06:58;;;;;;;;;;;4.10;99.90;;;;;;5057545;28;19925;-63
2021/01/24 09:09:25;;;;;;;;;;;3.80;99.90;;;;;;5056807;28;19970;-63
2021/01/24 09:11:52;;;;;;;;;;;3.80;99.90;;;;;;5056766;28;19925;-63
2021/01/24 09:14:18;;;;;;;;;;;3.60;99.90;;;;;;5056540;28;19924;-63
2021/01/24 09:16:44;;;;;;;;;;;3.70;99.90;;;;;;5056378;28;19978;-63
2021/01/24 09:19:10;;;;;;;;;;;3.60;99.90;;;;;;5056422;28;19932;-64
2021/01/24 09:21:36;;;;;;;;;;;3.50;99.90;;;;;;5056774;28;19928;-63
2021/01/24 09:24:03;;;;;;;;;;;3.50;99.90;;;;;;5056427;28;19947;-62
2021/01/24 09:26:29;;;;;;;;;;;3.30;99.90;;;;;;5056191;28;19925;-62
2021/01/24 09:28:55;;;;;;;;;;;3.10;99.90;;;;;;5056090;28;19925;-62
2021/01/24 09:31:22;;;;;;;;;;;3.00;99.90;;;;;;5056333;28;19925;-61
2021/01/24 09:33:48;;;;;;;;;;;2.90;99.90;;;;;;5056207;28;19924;-63
2021/01/24 09:36:14;;;;;;;;;;;2.90;99.90;;;;;;5056148;28;19925;-64
2021/01/24 09:38:40;;;;;;;;;;;2.80;99.90;;;;;;5056486;28;19925;-63
2021/01/24 09:41:06;;;;;;;;;;;2.80;99.90;;;;;;5057302;28;19936;-61
2021/01/24 09:43:32;;;;;;;;;;;2.90;99.90;;;;;;5063258;28;19928;-63
2021/01/24 09:45:58;;;;;;;;;;;2.60;99.90;;;;;;5062918;28;20299;-62
2021/01/24 09:48:25;;;;;;;;;;;2.50;99.90;;;;;;5061650;28;20379;-62
2021/01/24 09:50:51;;;;;;;;;;;2.50;99.90;;;;;;5063200;28;19925;-61
2021/01/24 09:53:17;;;;;;;;;;;2.30;99.90;;;;;;5057431;28;19925;-63
2021/01/24 09:55:43;;;;;;;;;;;2.40;99.90;;;;;;5056495;28;19925;-63
2021/01/24 09:58:09;;;;;;;;;;;2.40;99.90;;;;;;5056630;28;19925;-62
2021/01/24 10:00:35;;;;;;;;;;;2.40;99.90;;;;;;5056287;28;19940;-63
2021/01/24 10:03:02;;;;;;;;;;;2.40;99.90;;;;;;5055812;28;19951;-62
2021/01/24 10:05:28;;;;;;;;;;;2.50;99.90;;;;;;5055779;28;20039;-62
2021/01/24 10:07:54;;;;;;;;;;;2.50;99.90;;;;;;5057100;28;19975;-62
2021/01/24 10:10:20;;;;;;;;;;;2.60;99.90;;;;;;5062175;28;20388;-62
2021/01/24 10:12:47;;;;;;;;;;;2.50;99.90;;;;;;5064114;28;20402;-62
2021/01/24 10:15:14;;;;;;;;;;;2.60;99.90;;;;;;5064936;28;20355;-63
2021/01/24 10:17:40;;;;;;;;;;;2.60;99.90;;;;;;5064032;28;19929;-63
2021/01/24 10:20:06;;;;;;;;;;;2.60;99.90;;;;;;5063866;28;19929;-62
2021/01/24 10:22:33;;;;;;;;;;;2.70;99.90;;;;;;5064485;28;19925;-62
2021/01/24 10:24:59;;;;;;;;;;;2.80;99.90;;;;;;5061867;28;19931;-62
2021/01/24 10:27:25;;;;;;;;;;;2.80;99.90;;;;;;5065212;28;20375;-64
2021/01/24 10:29:51;;;;;;;;;;;3.00;99.90;;;;;;5065279;28;19924;-62
2021/01/24 10:32:17;;;;;;;;;;;3.10;99.90;;;;;;5065120;28;20272;-62
2021/01/24 10:34:43;;;;;;;;;;;3.20;99.90;;;;;;5065327;28;19932;-60
2021/01/24 10:37:09;;;;;;;;;;;3.30;99.90;;;;;;5062827;28;19929;-61
2021/01/24 10:39:36;;;;;;;;;;;3.50;99.90;;;;;;5064693;28;19932;-62
2021/01/24 10:42:02;;;;;;;;;;;4.10;99.90;;;;;;5067311;28;19932;-62
2021/01/24 10:44:29;;;;;;;;;;;4.60;99.90;;;;;;5067327;28;19947;-63
2021/01/24 10:46:55;;;;;;;;;;;4.80;99.90;;;;;;5066935;28;19925;-63
2021/01/24 10:49:21;;;;;;;;;;;4.90;99.90;;;;;;5067016;28;19932;-63
2021/01/24 10:51:47;;;;;;;;;;;5.00;99.90;;;;;;5066131;28;19975;-64
2021/01/24 10:54:13;;;;;;;;;;;5.00;99.90;;;;;;5066341;28;19925;-61
2021/01/24 10:56:39;;;;;;;;;;;4.90;99.90;;;;;;5065744;28;19951;-62
2021/01/24 10:59:08;;;;;;;;;;;5.00;99.90;;;;;;5065006;28;19933;-63
2021/01/24 11:01:34;;;;;;;;;;;5.30;99.90;;;;;;5064095;28;19932;-62
2021/01/24 11:04:00;;;;;;;;;;;5.40;99.90;;;;;;5063356;28;19925;-63
2021/01/24 11:06:26;;;;;;;;;;;5.50;99.90;;;;;;5065056;28;19994;-63
2021/01/24 11:08:52;;;;;;;;;;;5.70;99.90;;;;;;5066190;28;20354;-62
2021/01/24 11:11:20;;;;;;;;;;;5.70;99.90;;;;;;5063531;28;19931;-63
2021/01/24 11:13:47;;;;;;;;;;;5.80;99.90;;;;;;5064699;28;19929;-63
2021/01/24 11:16:13;;;;;;;;;;;5.50;99.90;;;;;;5063274;28;19925;-63
2021/01/24 11:18:39;;;;;;;;;;;5.40;99.90;;;;;;5064496;28;20380;-63
2021/01/24 11:21:05;;;;;;;;;;;5.20;99.90;;;;;;5056207;28;20295;-64
2021/01/24 11:23:31;;;;;;;;;;;5.00;99.90;;;;;;5055319;28;20292;-63
2021/01/24 11:25:57;;;;;;;;;;;4.90;99.90;;;;;;5056479;28;19931;-63
2021/01/24 11:28:23;;;;;;;;;;;4.90;99.90;;;;;;5055337;28;19925;-62
2021/01/24 11:30:50;;;;;;;;;;;4.80;99.90;;;;;;5055483;28;19925;-63
2021/01/24 11:33:16;;;;;;;;;;;4.80;99.90;;;;;;5055412;28;19928;-62
2021/01/24 11:35:42;;;;;;;;;;;4.80;99.90;;;;;;5055347;28;19924;-62
2021/01/24 11:38:08;;;;;;;;;;;4.70;99.90;;;;;;5055587;28;19928;-62
2021/01/24 11:40:34;;;;;;;;;;;4.70;99.90;;;;;;5055553;28;19924;-62
2021/01/24 11:43:00;;;;;;;;;;;4.60;99.90;;;;;;5055848;28;19931;-63
2021/01/24 11:45:26;;;;;;;;;;;4.50;99.90;;;;;;5055112;28;20299;-64
2021/01/24 11:47:55;;;;;;;;;;;4.50;99.90;;;;;;5054812;28;19975;-62
2021/01/24 11:50:21;;;;;;;;;;;4.60;99.90;;;;;;5054957;28;20379;-63
2021/01/24 11:52:47;;;;;;;;;;;4.50;99.90;;;;;;5055271;28;19929;-63
2021/01/24 11:55:13;;;;;;;;;;;4.50;99.90;;;;;;5055089;28;19924;-62
2021/01/24 11:57:39;;;;;;;;;;;4.40;99.90;;;;;;5055279;28;19991;-63
2021/01/24 12:00:06;;;;;;;;;;;4.40;99.90;;;;;;5055915;28;19925;-62
2021/01/24 12:02:32;;;;;;;;;;;4.40;99.90;;;;;;5057161;28;20348;-62
2021/01/24 12:04:59;;;;;;;;;;;4.30;99.90;;;;;;5056862;28;20390;-62
2021/01/24 12:07:25;;;;;;;;;;;4.40;99.90;;;;;;5057248;28;19948;-62
2021/01/24 12:09:52;;;;;;;;;;;4.40;99.90;;;;;;5055019;28;20303;-64
2021/01/24 12:12:18;;;;;;;;;;;4.50;99.90;;;;;;5061028;28;20362;-62
2021/01/24 12:14:44;;;;;;;;;;;4.50;99.90;;;;;;5063389;28;19925;-62
2021/01/24 12:17:10;;;;;;;;;;;4.60;99.90;;;;;;5060788;28;19925;-62
2021/01/24 12:19:36;;;;;;;;;;;4.70;99.90;;;;;;5058690;28;20391;-62
2021/01/24 12:22:03;;;;;;;;;;;4.60;99.90;;;;;;5058703;28;20299;-62
2021/01/24 12:24:29;;;;;;;;;;;4.70;99.90;;;;;;5058756;28;20333;-62
2021/01/24 12:26:55;;;;;;;;;;;4.80;99.90;;;;;;5058715;28;19948;-62
2021/01/24 12:29:21;;;;;;;;;;;4.60;99.90;;;;;;5058735;28;19925;-62
2021/01/24 12:31:47;;;;;;;;;;;4.70;99.90;;;;;;5058547;28;19932;-62
2021/01/24 12:34:13;;;;;;;;;;;4.70;99.90;;;;;;5058961;28;19925;-62
2021/01/24 12:36:39;;;;;;;;;;;4.90;99.90;;;;;;5058573;28;19925;-62
2021/01/24 12:39:07;;;;;;;;;;;4.80;99.90;;;;;;5058250;28;19954;-62
2021/01/24 12:41:33;;;;;;;;;;;4.60;99.90;;;;;;5058181;28;19967;-63
2021/01/24 12:43:59;;;;;;;;;;;4.70;99.90;;;;;;5059488;28;19970;-62
2021/01/24 12:46:25;;;;;;;;;;;4.70;99.90;;;;;;5061485;28;19925;-63
2021/01/24 12:48:51;;;;;;;;;;;4.70;99.90;;;;;;5067626;28;19936;-63
2021/01/24 12:51:17;;;;;;;;;;;4.70;99.90;;;;;;5068076;28;19932;-62
2021/01/24 12:53:43;;;;;;;;;;;4.80;99.90;;;;;;5060179;28;19975;-62
2021/01/24 12:56:10;;;;;;;;;;;4.60;99.90;;;;;;5060198;28;19924;-61
2021/01/24 12:58:36;;;;;;;;;;;4.70;99.90;;;;;;5059417;28;19929;-63
2021/01/24 13:01:02;;;;;;;;;;;4.70;99.90;;;;;;5059942;28;19932;-63
2021/01/24 13:03:28;;;;;;;;;;;4.60;99.90;;;;;;5059213;28;19971;-62
2021/01/24 13:05:54;;;;;;;;;;;4.50;99.90;;;;;;5061220;28;19932;-63
2021/01/24 13:08:21;;;;;;;;;;;4.40;99.90;;;;;;5066356;28;19925;-64
2021/01/24 13:10:47;;;;;;;;;;;4.10;99.90;;;;;;5064647;28;20269;-63
2021/01/24 13:13:14;;;;;;;;;;;4.00;99.90;;;;;;5059553;28;20288;-63
2021/01/24 13:15:40;;;;;;;;;;;3.90;99.90;;;;;;5059368;28;19932;-63
2021/01/24 13:18:06;;;;;;;;;;;3.80;99.90;;;;;;5059602;28;19929;-62
2021/01/24 13:20:32;;;;;;;;;;;3.70;99.90;;;;;;5059120;28;19925;-62
2021/01/24 13:22:58;;;;;;;;;;;3.60;99.90;;;;;;5055902;28;20397;-64
2021/01/24 13:25:24;;;;;;;;;;;3.60;99.90;;;;;;5057874;28;19925;-64
2021/01/24 13:27:50;;;;;;;;;;;3.60;99.90;;;;;;5057367;28;19947;-62
2021/01/24 13:30:18;;;;;;;;;;;3.50;99.90;;;;;;5057596;28;20019;-62
2021/01/24 13:32:44;;;;;;;;;;;3.60;99.90;;;;;;5056640;28;19925;-62
2021/01/24 13:35:10;;;;;;;;;;;3.70;99.90;;;;;;5057010;28;20303;-62
2021/01/24 13:37:36;;;;;;;;;;;3.90;99.90;;;;;;5057521;28;20034;-64
2021/01/24 13:40:03;;;;;;;;;;;4.10;99.90;;;;;;5056624;28;19936;-62
2021/01/24 13:42:29;;;;;;;;;;;4.20;99.90;;;;;;5056425;28;19933;-63
2021/01/24 13:44:55;;;;;;;;;;;4.40;99.90;;;;;;5056610;28;20334;-62
2021/01/24 13:47:22;;;;;;;;;;;4.70;99.90;;;;;;5057322;28;20031;-62
2021/01/24 13:49:48;;;;;;;;;;;4.90;99.90;;;;;;5058887;28;19929;-62
2021/01/24 13:52:14;;;;;;;;;;;5.20;99.90;;;;;;5055981;28;19971;-62
2021/01/24 13:54:40;;;;;;;;;;;5.50;99.90;;;;;;5055619;28;19932;-63
2021/01/24 13:57:06;;;;;;;;;;;5.70;99.90;;;;;;5055953;28;19929;-62
2021/01/24 13:59:32;;;;;;;;;;;5.80;99.90;;;;;;5055869;28;19925;-62
2021/01/24 14:01:58;;;;;;;;;;;5.80;99.90;;;;;;5055912;28;19925;-61
2021/01/24 14:04:25;;;;;;;;;;;5.80;99.90;;;;;;5056208;28;19994;-62
2021/01/24 14:06:51;;;;;;;;;;;5.80;99.90;;;;;;5055911;28;19925;-62
2021/01/24 14:09:17;;;;;;;;;;;5.80;99.90;;;;;;5055877;28;20019;-61
2021/01/24 14:11:43;;;;;;;;;;;5.90;99.90;;;;;;5055930;28;19924;-63
2021/01/24 14:14:09;;;;;;;;;;;5.80;99.90;;;;;;5055739;28;19924;-63
2021/01/24 14:16:35;;;;;;;;;;;5.60;99.90;;;;;;5055667;28;20299;-63
2021/01/24 14:19:01;;;;;;;;;;;5.60;99.90;;;;;;5056182;28;20269;-62
2021/01/24 14:21:28;;;;;;;;;;;5.30;99.90;;;;;;5056107;28;20302;-63
2021/01/24 14:23:54;;;;;;;;;;;5.30;99.90;;;;;;5055651;28;19928;-62
2021/01/24 14:26:21;;;;;;;;;;;5.20;99.90;;;;;;5055784;28;19932;-62
2021/01/24 14:28:47;;;;;;;;;;;5.20;99.90;;;;;;5055655;28;19978;-62